createdAt,value
2022-09-20T00:01:41.570Z,14.90
2022-09-20T00:04:13.140Z,14.80
2022-09-20T00:06:39.876Z,14.80
2022-09-20T00:09:06.642Z,14.70
2022-09-20T00:11:35.858Z,14.70
2022-09-20T00:14:08.302Z,14.60
2022-09-20T00:16:40.962Z,14.60
2022-09-20T00:19:18.664Z,14.60
2022-09-20T00:21:47.529Z,14.60
2022-09-20T00:24:20.130Z,14.50
2022-09-20T00:26:49.327Z,14.50
2022-09-20T00:29:18.320Z,14.50
2022-09-20T00:31:47.690Z,14.40
2022-09-20T00:34:33.133Z,14.40
2022-09-20T00:37:02.302Z,14.40
2022-09-20T00:39:31.446Z,14.30
2022-09-20T00:42:00.659Z,14.30
2022-09-20T00:45:07.588Z,14.30
2022-09-20T00:47:47.960Z,14.20
2022-09-20T00:50:41.787Z,14.20
2022-09-20T00:53:20.278Z,14.20
2022-09-20T00:55:59.572Z,14.10
2022-09-20T00:58:32.579Z,14.10
2022-09-20T01:01:02.429Z,14.10
2022-09-20T01:03:36.192Z,14.10
2022-09-20T01:06:13.704Z,14.10
2022-09-20T01:08:53.107Z,14.10
2022-09-20T01:11:25.031Z,14.10
2022-09-20T01:13:51.839Z,14.00
2022-09-20T01:16:28.009Z,14.00
2022-09-20T01:19:00.228Z,14.00
2022-09-20T01:21:28.451Z,14.00
2022-09-20T01:24:22.185Z,14.00
2022-09-20T01:27:15.442Z,13.90
2022-09-20T01:30:06.915Z,13.90
2022-09-20T01:33:12.771Z,13.90
2022-09-20T01:35:45.239Z,13.90
2022-09-20T01:38:41.457Z,13.80
2022-09-20T01:41:38.726Z,13.80
2022-09-20T01:44:08.047Z,13.80
2022-09-20T01:46:36.847Z,13.80
2022-09-20T01:49:28.089Z,13.70
2022-09-20T01:52:12.865Z,13.70
2022-09-20T01:55:04.414Z,13.70
2022-09-20T01:58:15.263Z,13.70
2022-09-20T02:01:34.980Z,13.70
2022-09-20T02:04:38.138Z,13.70
2022-09-20T02:07:46.051Z,13.60
2022-09-20T02:10:51.763Z,13.60
2022-09-20T02:13:32.778Z,13.60
2022-09-20T02:16:42.580Z,13.60
2022-09-20T02:19:40.282Z,13.60
2022-09-20T02:22:31.241Z,13.50
2022-09-20T02:25:41.016Z,13.50
2022-09-20T02:28:40.631Z,13.50
2022-09-20T02:31:24.942Z,13.40
2022-09-20T02:34:59.177Z,13.40
2022-09-20T02:37:46.003Z,13.40
2022-09-20T02:40:29.897Z,13.30
2022-09-20T02:43:17.430Z,13.30
2022-09-20T02:45:59.939Z,13.30
2022-09-20T02:48:57.046Z,13.30
2022-09-20T02:51:55.352Z,13.20
2022-09-20T02:54:53.878Z,13.20
2022-09-20T02:58:08.580Z,13.20
2022-09-20T03:01:24.081Z,13.20
2022-09-20T03:04:13.847Z,13.10
2022-09-20T03:06:58.855Z,13.10
2022-09-20T03:09:51.476Z,13.10
2022-09-20T03:12:55.037Z,13.00
2022-09-20T03:15:49.395Z,13.00
2022-09-20T03:19:03.011Z,13.00
2022-09-20T03:21:49.829Z,13.00
2022-09-20T03:25:01.833Z,12.90
2022-09-20T03:28:37.692Z,12.90
2022-09-20T03:31:14.145Z,12.90
2022-09-20T03:33:50.343Z,12.80
2022-09-20T03:36:47.153Z,12.80
2022-09-20T03:39:43.640Z,12.80
2022-09-20T03:42:19.132Z,12.70
2022-09-20T03:45:32.718Z,12.70
2022-09-20T03:48:36.920Z,12.70
2022-09-20T03:51:23.778Z,12.70
2022-09-20T03:54:07.275Z,12.70
2022-09-20T03:57:02.262Z,12.70
2022-09-20T03:59:54.853Z,12.60
2022-09-20T04:02:46.754Z,12.60
2022-09-20T04:05:48.304Z,12.60
2022-09-20T04:09:14.736Z,12.60
2022-09-20T04:11:55.025Z,12.50
2022-09-20T04:15:09.099Z,12.50
2022-09-20T04:18:23.520Z,12.50
2022-09-20T04:21:17.676Z,12.50
2022-09-20T04:23:50.018Z,12.40
2022-09-20T04:26:31.626Z,12.40
2022-09-20T04:29:05.498Z,12.40
2022-09-20T04:31:45.393Z,12.40
2022-09-20T04:35:02.612Z,12.40
2022-09-20T04:37:35.957Z,12.30
2022-09-20T04:40:51.674Z,12.40
2022-09-20T04:44:24.365Z,12.40
2022-09-20T04:47:25.591Z,12.40
2022-09-20T04:50:41.073Z,12.40
2022-09-20T04:53:40.746Z,12.40
2022-09-20T04:56:48.605Z,12.30
2022-09-20T05:00:08.386Z,12.30
2022-09-20T05:03:15.363Z,12.30
2022-09-20T05:06:15.616Z,12.30
2022-09-20T05:09:07.264Z,12.30
2022-09-20T05:11:54.531Z,12.30
2022-09-20T05:15:02.898Z,12.30
2022-09-20T05:18:28.581Z,12.20
2022-09-20T05:21:35.383Z,12.20
2022-09-20T05:24:30.811Z,12.20
2022-09-20T05:27:24.808Z,12.20
2022-09-20T05:30:22.860Z,12.20
2022-09-20T05:33:10.090Z,12.20
2022-09-20T05:35:47.351Z,12.20
2022-09-20T05:38:44.491Z,12.30
2022-09-20T05:42:09.496Z,12.30
2022-09-20T05:44:50.960Z,12.40
2022-09-20T05:47:55.000Z,12.40
2022-09-20T05:50:45.419Z,12.50
2022-09-20T05:53:39.346Z,12.60
2022-09-20T05:56:35.740Z,12.60
2022-09-20T05:59:12.853Z,12.70
2022-09-20T06:02:10.383Z,12.80
2022-09-20T06:05:10.952Z,12.90
2022-09-20T06:08:03.751Z,13.00
2022-09-20T06:10:50.332Z,13.00
2022-09-20T06:13:35.241Z,13.10
2022-09-20T06:16:07.752Z,13.20
2022-09-20T06:19:12.706Z,13.20
2022-09-20T06:22:24.605Z,13.30
2022-09-20T06:25:09.862Z,13.40
2022-09-20T06:27:55.100Z,13.40
2022-09-20T06:30:33.389Z,13.50
2022-09-20T06:33:12.978Z,13.50
2022-09-20T06:35:45.257Z,13.50
2022-09-20T06:38:56.845Z,13.60
2022-09-20T06:41:31.310Z,13.60
2022-09-20T06:44:03.884Z,13.70
2022-09-20T06:46:35.516Z,13.80
2022-09-20T06:49:09.691Z,13.80
2022-09-20T06:51:39.091Z,13.90
2022-09-20T06:54:12.662Z,13.90
2022-09-20T06:56:39.565Z,14.00
2022-09-20T06:59:11.397Z,14.00
2022-09-20T07:01:38.786Z,14.10
2022-09-20T07:04:06.539Z,14.10
2022-09-20T07:06:36.145Z,14.20
2022-09-20T07:09:03.784Z,14.30
2022-09-20T07:11:34.960Z,14.30
2022-09-20T07:14:06.127Z,14.30
2022-09-20T07:16:36.206Z,14.30
2022-09-20T07:19:05.863Z,14.40
2022-09-20T07:21:37.611Z,14.40
2022-09-20T07:24:06.925Z,14.50
2022-09-20T07:26:39.010Z,14.50
2022-09-20T07:29:09.006Z,14.50
2022-09-20T07:31:35.787Z,14.60
2022-09-20T07:34:02.541Z,14.60
2022-09-20T07:36:29.321Z,14.70
2022-09-20T07:38:56.210Z,14.70
2022-09-20T07:41:26.524Z,14.80
2022-09-20T07:44:13.228Z,14.80
2022-09-20T07:46:40.007Z,14.90
2022-09-20T07:49:09.217Z,14.90
2022-09-20T07:51:38.475Z,15.00
2022-09-20T07:54:07.711Z,15.10
2022-09-20T07:56:36.959Z,15.10
2022-09-20T07:59:06.810Z,15.20
2022-09-20T08:01:37.089Z,15.30
2022-09-20T08:04:11.572Z,15.40
2022-09-20T08:06:42.689Z,15.50
2022-09-20T08:09:13.423Z,15.50
2022-09-20T08:11:44.294Z,15.60
2022-09-20T08:14:17.403Z,15.70
2022-09-20T08:16:50.301Z,15.80
2022-09-20T08:19:22.741Z,15.90
2022-09-20T08:21:54.205Z,16.00
2022-09-20T08:24:26.738Z,16.00
2022-09-20T08:26:53.473Z,16.10
2022-09-20T08:29:20.360Z,16.10
2022-09-20T08:31:49.950Z,16.20
2022-09-20T08:34:18.924Z,16.20
2022-09-20T08:36:47.069Z,16.30
2022-09-20T08:42:33.033Z,16.30
2022-09-20T08:45:23.419Z,16.30
2022-09-20T08:48:06.321Z,16.30
2022-09-20T08:50:37.300Z,16.40
2022-09-20T08:53:06.896Z,16.40
2022-09-20T08:55:37.328Z,16.40
2022-09-20T08:58:12.482Z,16.50
2022-09-20T09:00:44.762Z,16.60
2022-09-20T09:03:18.864Z,16.70
2022-09-20T09:05:58.012Z,16.80
2022-09-20T09:08:37.689Z,16.80
2022-09-20T09:11:17.044Z,16.80
2022-09-20T09:14:26.608Z,16.90
2022-09-20T09:16:55.611Z,16.90
2022-09-20T09:19:34.047Z,17.00
2022-09-20T09:22:08.115Z,17.10
2022-09-20T09:24:37.918Z,17.10
2022-09-20T09:27:19.477Z,17.20
2022-09-20T09:29:56.373Z,17.30
2022-09-20T09:32:35.063Z,17.40
2022-09-20T09:35:32.194Z,17.50
2022-09-20T09:38:02.190Z,17.60
2022-09-20T09:40:33.051Z,17.80
2022-09-20T09:43:02.797Z,18.00
2022-09-20T09:45:43.850Z,18.10
2022-09-20T09:48:24.877Z,18.30
2022-09-20T09:51:12.177Z,18.50
2022-09-20T09:53:39.992Z,18.60
2022-09-20T09:56:41.399Z,18.80
2022-09-20T09:59:27.649Z,18.90
2022-09-20T10:02:13.238Z,19.00
2022-09-20T10:05:03.398Z,19.10
2022-09-20T10:08:13.128Z,19.20
2022-09-20T10:11:16.075Z,19.10
2022-09-20T10:13:57.868Z,19.10
2022-09-20T10:17:08.348Z,19.10
2022-09-20T10:20:28.136Z,19.10
2022-09-20T10:23:45.195Z,19.10
2022-09-20T10:26:22.083Z,19.20
2022-09-20T10:29:48.141Z,19.20
2022-09-20T10:32:18.820Z,19.20
2022-09-20T10:35:24.762Z,19.20
2022-09-20T10:38:12.236Z,19.20
2022-09-20T10:41:31.733Z,19.20
2022-09-20T10:44:19.227Z,19.20
2022-09-20T10:47:14.140Z,19.40
2022-09-20T10:49:50.785Z,19.50
2022-09-20T10:52:32.496Z,19.70
2022-09-20T10:55:22.300Z,19.90
2022-09-20T10:58:56.025Z,20.00
2022-09-20T11:01:47.524Z,20.20
2022-09-20T11:04:32.367Z,20.50
2022-09-20T11:07:21.758Z,20.60
2022-09-20T11:10:02.530Z,20.70
2022-09-20T11:12:51.206Z,20.70
2022-09-20T11:15:26.953Z,20.80
2022-09-20T11:18:25.666Z,20.90
2022-09-20T11:21:32.530Z,21.00
2022-09-20T11:24:38.119Z,21.10
2022-09-20T11:27:25.521Z,21.10
2022-09-20T11:29:57.984Z,20.90
2022-09-20T11:32:46.836Z,20.80
2022-09-20T11:35:16.390Z,20.70
2022-09-20T11:38:17.594Z,20.50
2022-09-20T11:41:11.900Z,20.40
2022-09-20T11:43:44.296Z,20.20
2022-09-20T11:46:21.394Z,20.00
2022-09-20T11:49:05.978Z,19.80
2022-09-20T11:52:05.119Z,19.70
2022-09-20T11:55:13.722Z,19.60
2022-09-20T11:57:43.042Z,19.50
2022-09-20T12:00:12.633Z,19.50
2022-09-20T12:02:53.991Z,19.60
2022-09-20T12:05:37.116Z,19.60
2022-09-20T12:08:27.876Z,19.70
2022-09-20T12:11:04.160Z,19.90
2022-09-20T12:13:36.356Z,20.00
2022-09-20T12:16:17.533Z,20.10
2022-09-20T12:18:54.039Z,20.30
2022-09-20T12:21:24.200Z,20.50
2022-09-20T12:23:56.767Z,20.60
2022-09-20T12:26:28.555Z,20.70
2022-09-20T12:28:59.540Z,20.80
2022-09-20T12:31:29.106Z,20.70
2022-09-20T12:34:11.511Z,20.80
2022-09-20T12:36:53.338Z,20.70
2022-09-20T12:39:36.400Z,20.70
2022-09-20T12:42:21.631Z,20.70
2022-09-20T12:44:53.246Z,20.60
2022-09-20T12:47:22.491Z,20.50
2022-09-20T12:50:07.818Z,20.40
2022-09-20T12:53:04.826Z,20.30
2022-09-20T12:56:01.895Z,20.20
2022-09-20T12:58:48.677Z,20.10
2022-09-20T13:01:15.500Z,20.00
2022-09-20T13:03:44.294Z,19.90
2022-09-20T13:06:14.808Z,19.90
2022-09-20T13:08:50.393Z,19.90
2022-09-20T13:11:52.460Z,20.10
2022-09-20T13:14:23.532Z,20.50
2022-09-20T13:17:14.336Z,21.00
2022-09-20T13:19:51.515Z,21.50
2022-09-20T13:22:26.646Z,22.20
2022-09-20T13:25:05.203Z,22.70
2022-09-20T13:27:45.089Z,23.20
2022-09-20T13:30:17.641Z,23.50
2022-09-20T13:32:45.517Z,23.70
2022-09-20T13:35:21.563Z,23.90
2022-09-20T13:38:04.919Z,24.10
2022-09-20T13:40:43.786Z,24.30
2022-09-20T13:43:33.381Z,24.60
2022-09-20T13:46:09.759Z,24.80
2022-09-20T13:48:39.462Z,25.10
2022-09-20T13:51:29.051Z,25.30
2022-09-20T13:54:30.986Z,25.50
2022-09-20T13:57:05.343Z,25.50
2022-09-20T13:59:44.812Z,25.50
2022-09-20T14:02:27.735Z,25.70
2022-09-20T14:04:57.849Z,25.70
2022-09-20T14:07:27.918Z,25.70
2022-09-20T14:09:58.846Z,25.50
2022-09-20T14:12:27.648Z,25.20
2022-09-20T14:14:57.526Z,24.90
2022-09-20T14:17:25.784Z,24.50
2022-09-20T14:19:54.819Z,24.10
2022-09-20T14:22:30.596Z,23.60
2022-09-20T14:25:25.299Z,23.30
2022-09-20T14:28:19.165Z,22.90
2022-09-20T14:30:51.168Z,22.60
2022-09-20T14:33:24.333Z,22.40
2022-09-20T14:35:52.627Z,22.10
2022-09-20T14:38:27.167Z,21.90
2022-09-20T14:40:56.728Z,21.70
2022-09-20T14:43:36.186Z,21.70
2022-09-20T14:46:41.497Z,21.70
2022-09-20T14:49:28.494Z,21.60
2022-09-20T14:52:36.432Z,21.50
2022-09-20T14:55:28.360Z,21.40
2022-09-20T14:58:03.198Z,21.30
2022-09-20T15:00:47.236Z,21.50
2022-09-20T15:03:21.396Z,21.60
2022-09-20T15:05:50.819Z,21.70
2022-09-20T15:08:20.273Z,21.80
2022-09-20T15:10:47.785Z,21.90
2022-09-20T15:13:14.934Z,22.00
2022-09-20T15:15:44.228Z,22.00
2022-09-20T15:18:25.325Z,22.00
2022-09-20T15:20:54.145Z,22.00
2022-09-20T15:23:21.832Z,22.10
2022-09-20T15:25:54.475Z,22.20
2022-09-20T15:28:24.173Z,22.20
2022-09-20T15:30:51.745Z,22.20
2022-09-20T15:33:23.610Z,22.20
2022-09-20T15:35:52.975Z,22.30
2022-09-20T15:38:22.733Z,22.30
2022-09-20T15:40:50.171Z,22.30
2022-09-20T15:43:26.992Z,22.30
2022-09-20T15:45:57.641Z,22.30
2022-09-20T15:48:30.100Z,22.30
2022-09-20T15:51:14.996Z,22.30
2022-09-20T15:53:54.073Z,22.30
2022-09-20T15:56:23.370Z,22.40
2022-09-20T15:58:58.995Z,22.40
2022-09-20T16:01:38.095Z,22.50
2022-09-20T16:04:10.272Z,22.50
2022-09-20T16:06:43.963Z,22.50
2022-09-20T16:09:11.860Z,22.50
2022-09-20T16:11:41.880Z,22.50
2022-09-20T16:14:13.209Z,22.40
2022-09-20T16:16:43.187Z,22.30
2022-09-20T16:19:24.845Z,22.20
2022-09-20T16:21:59.155Z,22.00
2022-09-20T16:24:35.822Z,21.80
2022-09-20T16:27:06.173Z,21.60
2022-09-20T16:29:33.954Z,21.50
2022-09-20T16:32:04.021Z,21.20
2022-09-20T16:34:36.807Z,21.10
2022-09-20T16:37:12.042Z,20.90
2022-09-20T16:39:40.234Z,20.80
2022-09-20T16:42:13.141Z,20.70
2022-09-20T16:44:45.364Z,20.50
2022-09-20T16:47:21.867Z,20.40
2022-09-20T16:49:53.123Z,20.30
2022-09-20T16:52:22.747Z,20.20
2022-09-20T16:54:54.069Z,20.10
2022-09-20T16:57:23.144Z,20.00
2022-09-20T16:59:51.739Z,19.90
2022-09-20T17:02:18.534Z,19.80
2022-09-20T17:04:47.838Z,19.70
2022-09-20T17:07:14.743Z,19.70
2022-09-20T17:09:43.834Z,19.60
2022-09-20T17:12:10.581Z,19.50
2022-09-20T17:14:39.619Z,19.40
2022-09-20T17:17:09.681Z,19.20
2022-09-20T17:19:36.395Z,19.20
2022-09-20T17:22:03.137Z,19.00
2022-09-20T17:24:33.576Z,18.90
2022-09-20T17:27:05.102Z,18.90
2022-09-20T17:29:34.370Z,18.70
2022-09-20T17:32:05.752Z,18.60
2022-09-20T17:34:35.560Z,18.50
2022-09-20T17:37:04.659Z,18.40
2022-09-20T17:39:34.063Z,18.30
2022-09-20T17:42:03.227Z,18.20
2022-09-20T17:44:30.015Z,18.20
2022-09-20T17:46:58.957Z,18.10
2022-09-20T17:49:28.546Z,18.00
2022-09-20T17:51:58.454Z,17.90
2022-09-20T17:54:26.195Z,17.90
2022-09-20T17:56:56.477Z,17.80
2022-09-20T17:59:28.132Z,17.80
2022-09-20T18:01:59.666Z,17.70
2022-09-20T18:04:28.911Z,17.70
2022-09-20T18:07:01.621Z,17.60
2022-09-20T18:09:30.581Z,17.60
2022-09-20T18:11:57.432Z,17.50
2022-09-20T18:14:31.574Z,17.50
2022-09-20T18:17:03.559Z,17.40
2022-09-20T18:19:34.198Z,17.40
2022-09-20T18:22:04.974Z,17.40
2022-09-20T18:24:34.848Z,17.30
2022-09-20T18:27:04.805Z,17.30
2022-09-20T18:29:36.562Z,17.30
2022-09-20T18:32:08.686Z,17.30
2022-09-20T18:34:40.473Z,17.20
2022-09-20T18:37:14.431Z,17.20
2022-09-20T18:39:42.688Z,17.20
2022-09-20T18:42:11.698Z,17.10
2022-09-20T18:44:41.082Z,17.10
2022-09-20T18:47:10.922Z,17.10
2022-09-20T18:49:40.321Z,17.00
2022-09-20T18:52:10.953Z,17.00
2022-09-20T18:54:42.020Z,17.00
2022-09-20T18:57:10.905Z,17.00
2022-09-20T18:59:40.516Z,16.90
2022-09-20T19:02:21.360Z,16.90
2022-09-20T19:05:09.430Z,16.90
2022-09-20T19:08:25.593Z,16.90
2022-09-20T19:11:01.152Z,16.80
2022-09-20T19:13:38.905Z,16.80
2022-09-20T19:16:18.474Z,16.80
2022-09-20T19:19:13.091Z,16.80
2022-09-20T19:21:52.154Z,16.80
2022-09-20T19:24:55.540Z,16.80
2022-09-20T19:27:27.998Z,16.80
2022-09-20T19:29:55.790Z,16.70
2022-09-20T19:32:26.215Z,16.70
2022-09-20T19:35:01.993Z,16.70
2022-09-20T19:38:02.102Z,16.70
2022-09-20T19:40:45.759Z,16.70
2022-09-20T19:43:41.388Z,16.70
2022-09-20T19:46:31.962Z,16.60
2022-09-20T19:49:30.909Z,16.60
2022-09-20T19:51:58.138Z,16.60
2022-09-20T19:54:27.929Z,16.60
2022-09-20T19:57:00.641Z,16.50
2022-09-20T19:59:33.906Z,16.50
2022-09-20T20:02:01.301Z,16.50
2022-09-20T20:04:31.134Z,16.50
2022-09-20T20:07:21.957Z,16.50
2022-09-20T20:10:03.956Z,16.50
2022-09-20T20:12:52.392Z,16.50
2022-09-20T20:15:38.126Z,16.50
2022-09-20T20:18:33.024Z,16.40
2022-09-20T20:21:00.324Z,16.40
2022-09-20T20:24:07.390Z,16.40
2022-09-20T20:26:34.990Z,16.30
2022-09-20T20:29:01.782Z,16.30
2022-09-20T20:31:31.165Z,16.30
2022-09-20T20:33:58.148Z,16.20
2022-09-20T20:36:27.340Z,16.20
2022-09-20T20:38:56.816Z,16.20
2022-09-20T20:41:27.170Z,16.20
2022-09-20T20:44:00.680Z,16.20
2022-09-20T20:46:27.695Z,16.10
2022-09-20T20:48:58.858Z,16.10
2022-09-20T20:51:27.133Z,16.10
2022-09-20T20:53:55.300Z,16.10
2022-09-20T20:56:28.605Z,16.10
2022-09-20T20:59:01.879Z,16.00
2022-09-20T21:01:39.926Z,16.00
2022-09-20T21:04:09.801Z,16.00
2022-09-20T21:06:41.523Z,15.90
2022-09-20T21:09:13.359Z,15.90
2022-09-20T21:11:44.799Z,15.80
2022-09-20T21:14:12.388Z,15.80
2022-09-20T21:16:43.623Z,15.80
2022-09-20T21:19:15.200Z,15.80
2022-09-20T21:21:47.691Z,15.70
2022-09-20T21:24:17.611Z,15.60
2022-09-20T21:26:47.455Z,15.60
2022-09-20T21:29:18.188Z,15.50
2022-09-20T21:31:48.719Z,15.50
2022-09-20T21:34:19.993Z,15.40
2022-09-20T21:36:46.805Z,15.40
2022-09-20T21:39:16.101Z,15.40
2022-09-20T21:41:46.194Z,15.30
2022-09-20T21:44:17.631Z,15.30
2022-09-20T21:46:48.302Z,15.20
2022-09-20T21:49:15.070Z,15.20
2022-09-20T21:51:42.921Z,15.10
2022-09-20T21:54:14.835Z,15.00
2022-09-20T21:56:41.752Z,15.00
2022-09-20T21:59:11.052Z,15.00
2022-09-20T22:01:40.939Z,14.90
2022-09-20T22:04:14.897Z,14.80
2022-09-20T22:06:44.324Z,14.80
2022-09-20T22:09:12.601Z,14.70
2022-09-20T22:11:47.933Z,14.70
2022-09-20T22:14:19.343Z,14.60
2022-09-20T22:16:48.285Z,14.60
2022-09-20T22:19:18.421Z,14.50
2022-09-20T22:21:51.321Z,14.50
2022-09-20T22:24:22.855Z,14.50
2022-09-20T22:26:51.120Z,14.40
2022-09-20T22:29:20.515Z,14.40
2022-09-20T22:31:51.415Z,14.30
2022-09-20T22:34:24.163Z,14.30
2022-09-20T22:36:55.273Z,14.30
2022-09-20T22:39:24.173Z,14.30
2022-09-20T22:41:53.400Z,14.20
2022-09-20T22:44:22.436Z,14.10
2022-09-20T22:46:51.499Z,14.20
2022-09-20T22:49:20.862Z,14.10
2022-09-20T22:51:50.092Z,14.10
2022-09-20T22:54:17.688Z,14.00
2022-09-20T22:56:44.515Z,14.00
2022-09-20T22:59:14.312Z,13.90
2022-09-20T23:01:45.102Z,13.90
2022-09-20T23:04:18.972Z,13.90
2022-09-20T23:06:54.977Z,13.90
2022-09-20T23:09:26.221Z,13.80
2022-09-20T23:11:55.384Z,13.80
2022-09-20T23:14:24.859Z,13.70
2022-09-20T23:16:51.721Z,13.70
2022-09-20T23:19:18.701Z,13.70
2022-09-20T23:21:47.708Z,13.60
2022-09-20T23:24:16.477Z,13.60
2022-09-20T23:26:48.113Z,13.50
2022-09-20T23:29:16.567Z,13.50
2022-09-20T23:31:47.720Z,13.50
2022-09-20T23:34:16.462Z,13.40
2022-09-20T23:36:44.579Z,13.40
2022-09-20T23:39:12.445Z,13.30
2022-09-20T23:41:41.311Z,13.30
2022-09-20T23:44:10.122Z,13.20
2022-09-20T23:46:38.707Z,13.20
2022-09-20T23:49:11.155Z,13.10
2022-09-20T23:51:38.514Z,13.10
2022-09-20T23:54:05.572Z,13.10
2022-09-20T23:56:37.419Z,13.00
2022-09-20T23:59:08.901Z,13.00
